createdAt,value
2018-10-11T00:02:26.834Z,8.20
2018-10-11T00:04:56.504Z,8.67
2018-10-11T00:07:25.865Z,9.20
2018-10-11T00:09:55.444Z,8.67
2018-10-11T00:12:25.021Z,7.72
2018-10-11T00:14:54.180Z,8.77
2018-10-11T00:17:23.529Z,8.37
2018-10-11T00:19:52.880Z,8.23
2018-10-11T00:22:22.836Z,8.20
2018-10-11T00:24:52.208Z,8.53
2018-10-11T00:27:21.560Z,7.90
2018-10-11T00:29:50.921Z,8.50
2018-10-11T00:32:20.423Z,8.83
2018-10-11T00:34:49.764Z,8.23
2018-10-11T00:37:19.645Z,9.20
2018-10-11T00:39:48.942Z,8.10
2018-10-11T00:42:18.289Z,8.37
2018-10-11T00:44:47.873Z,8.03
2018-10-11T00:47:17.631Z,9.30
2018-10-11T00:49:47.484Z,8.20
2018-10-11T00:52:16.855Z,7.13
2018-10-11T00:54:46.429Z,8.27
2018-10-11T00:57:16.043Z,8.43
2018-10-11T00:59:45.375Z,8.50
2018-10-11T01:02:14.739Z,8.50
2018-10-11T01:04:44.313Z,7.47
2018-10-11T01:07:13.659Z,8.10
2018-10-11T01:09:43.041Z,7.97
2018-10-11T01:12:12.365Z,8.40
2018-10-11T01:14:41.721Z,7.30
2018-10-11T01:17:11.276Z,8.20
2018-10-11T01:19:40.861Z,8.50
2018-10-11T01:22:10.188Z,8.30
2018-10-11T01:24:39.670Z,8.40
2018-10-11T01:27:09.104Z,10.13
2018-10-11T01:29:38.643Z,7.87
2018-10-11T01:32:08.437Z,8.60
2018-10-11T01:34:38.379Z,8.47
2018-10-11T01:37:07.703Z,8.17
2018-10-11T01:39:37.064Z,8.85
2018-10-11T01:42:06.713Z,9.47
2018-10-11T01:44:36.285Z,8.83
2018-10-11T01:47:05.816Z,9.10
2018-10-11T01:49:34.942Z,8.60
2018-10-11T01:52:04.074Z,7.97
2018-10-11T01:54:33.437Z,8.07
2018-10-11T01:57:02.994Z,8.75
2018-10-11T01:59:32.359Z,8.83
2018-10-11T02:02:01.505Z,8.90
2018-10-11T02:04:30.641Z,9.43
2018-10-11T02:07:00.050Z,8.10
2018-10-11T02:09:29.419Z,9.40
2018-10-11T02:11:58.737Z,8.83
2018-10-11T02:14:28.318Z,9.50
2018-10-11T02:16:58.038Z,8.90
2018-10-11T02:19:27.588Z,9.20
2018-10-11T02:21:56.973Z,9.47
2018-10-11T02:24:26.338Z,8.60
2018-10-11T02:26:55.722Z,19.80
2018-10-11T02:29:25.352Z,16.23
2018-10-11T02:31:54.845Z,16.10
2018-10-11T02:34:24.201Z,13.65
2018-10-11T02:36:53.538Z,13.28
2018-10-11T02:39:22.664Z,12.93
2018-10-11T02:41:52.041Z,12.10
2018-10-11T02:44:21.951Z,12.23
2018-10-11T02:46:51.092Z,11.87
2018-10-11T02:49:20.546Z,11.77
2018-10-11T02:51:49.865Z,12.40
2018-10-11T02:54:19.232Z,11.90
2018-10-11T02:56:49.128Z,12.10
2018-10-11T02:59:24.163Z,10.90
2018-10-11T03:01:53.535Z,11.00
2018-10-11T03:04:22.886Z,10.20
2018-10-11T03:06:52.007Z,10.80
2018-10-11T03:09:21.133Z,11.50
2018-10-11T03:11:50.633Z,10.87
2018-10-11T03:14:20.005Z,10.97
2018-10-11T03:16:49.354Z,10.70
2018-10-11T03:19:18.491Z,10.53
2018-10-11T03:21:47.879Z,12.17
2018-10-11T03:24:17.247Z,11.12
2018-10-11T03:26:46.721Z,11.17
2018-10-11T03:29:16.322Z,11.10
2018-10-11T03:31:45.653Z,9.50
2018-10-11T03:34:15.015Z,10.13
2018-10-11T03:36:44.594Z,11.47
2018-10-11T03:39:13.945Z,10.58
2018-10-11T03:41:43.310Z,10.90
2018-10-11T03:44:13.379Z,12.40
2018-10-11T03:46:42.678Z,11.57
2018-10-11T03:49:11.809Z,11.13
2018-10-11T03:51:40.965Z,11.00
2018-10-11T03:54:10.324Z,9.95
2018-10-11T03:56:39.901Z,10.80
2018-10-11T03:59:09.027Z,10.83
2018-10-11T04:01:38.576Z,11.40
2018-10-11T04:04:08.784Z,11.28
2018-10-11T04:06:38.420Z,10.47
2018-10-11T04:09:08.277Z,10.43
2018-10-11T04:11:38.156Z,10.13
2018-10-11T04:14:07.301Z,10.30
2018-10-11T04:16:36.750Z,10.67
2018-10-11T04:19:07.136Z,11.43
2018-10-11T04:21:36.720Z,11.50
2018-10-11T04:24:06.064Z,10.50
2018-10-11T04:26:35.442Z,9.93
2018-10-11T04:29:05.095Z,10.90
2018-10-11T04:31:34.226Z,9.80
2018-10-11T04:34:03.569Z,11.83
2018-10-11T04:36:33.233Z,11.10
2018-10-11T04:39:02.358Z,11.23
2018-10-11T04:41:31.497Z,11.10
2018-10-11T04:44:00.662Z,11.73
2018-10-11T04:46:29.960Z,11.00
2018-10-11T04:48:59.384Z,11.23
2018-10-11T04:51:28.959Z,10.17
2018-10-11T04:53:58.544Z,11.07
2018-10-11T04:56:29.247Z,10.67
2018-10-11T04:58:58.546Z,10.70
2018-10-11T05:01:28.776Z,10.13
2018-10-11T05:03:58.155Z,10.23
2018-10-11T05:06:27.520Z,11.10
2018-10-11T05:08:56.899Z,11.93
2018-10-11T05:11:26.249Z,10.20
2018-10-11T05:13:56.334Z,10.50
2018-10-11T05:16:25.922Z,11.20
2018-10-11T05:18:56.920Z,9.68
2018-10-11T05:21:26.307Z,10.93
2018-10-11T05:23:56.090Z,11.20
2018-10-11T05:26:25.691Z,10.33
2018-10-11T05:28:55.049Z,10.90
2018-10-11T05:31:24.169Z,11.05
2018-10-11T05:33:54.462Z,11.50
2018-10-11T05:36:24.055Z,11.00
2018-10-11T05:38:53.879Z,10.70
2018-10-11T05:41:23.251Z,10.82
2018-10-11T05:43:52.576Z,10.63
2018-10-11T05:46:23.240Z,11.03
2018-10-11T05:48:52.848Z,11.10
2018-10-11T05:51:22.630Z,10.30
2018-10-11T05:53:54.082Z,10.80
2018-10-11T05:56:24.934Z,10.50
2018-10-11T05:58:54.541Z,11.17
2018-10-11T06:01:24.408Z,10.60
2018-10-11T06:03:54.180Z,11.30
2018-10-11T06:06:23.545Z,9.90
2018-10-11T06:08:53.843Z,9.40
2018-10-11T06:11:23.422Z,10.60
2018-10-11T06:13:53.018Z,11.33
2018-10-11T06:16:22.584Z,10.35
2018-10-11T06:18:51.965Z,10.90
2018-10-11T06:21:21.544Z,10.60
2018-10-11T06:23:50.888Z,10.60
2018-10-11T06:26:20.982Z,11.30
2018-10-11T06:28:50.356Z,11.80
2018-10-11T06:31:19.677Z,11.70
2018-10-11T06:33:48.814Z,14.50
2018-10-11T06:36:18.198Z,18.10
2018-10-11T06:38:47.895Z,18.37
2018-10-11T06:41:17.031Z,20.08
2018-10-11T06:43:46.141Z,19.47
2018-10-11T06:46:15.276Z,16.60
2018-10-11T06:48:44.407Z,18.43
2018-10-11T06:51:13.570Z,16.90
2018-10-11T06:53:42.944Z,16.23
2018-10-11T06:56:13.220Z,16.30
2018-10-11T06:58:43.089Z,18.33
2018-10-11T07:01:13.285Z,22.50
2018-10-11T07:03:43.426Z,25.40
2018-10-11T07:06:14.054Z,23.95
2018-10-11T07:08:43.644Z,26.07
2018-10-11T07:11:14.080Z,27.70
2018-10-11T07:13:44.048Z,26.57
2018-10-11T07:16:14.066Z,26.00
2018-10-11T07:18:43.835Z,28.20
2018-10-11T07:21:14.155Z,26.57
2018-10-11T07:23:43.995Z,25.40
2018-10-11T07:26:13.996Z,29.05
2018-10-11T07:28:43.957Z,29.40
2018-10-11T07:31:14.409Z,30.85
2018-10-11T07:33:44.235Z,29.77
2018-10-11T07:36:14.494Z,29.52
2018-10-11T07:38:44.390Z,28.90
2018-10-11T07:41:14.684Z,28.65
2018-10-11T07:43:44.300Z,29.27
2018-10-11T07:46:14.176Z,26.93
2018-10-11T07:48:44.063Z,26.93
2018-10-11T07:51:13.432Z,27.40
2018-10-11T07:53:43.026Z,26.53
2018-10-11T07:56:12.369Z,26.27
2018-10-11T07:58:41.486Z,26.13
2018-10-11T08:01:10.630Z,27.13
2018-10-11T08:03:40.473Z,24.27
2018-10-11T08:06:09.620Z,24.03
2018-10-11T08:08:38.781Z,26.07
2018-10-11T08:11:08.305Z,21.70
2018-10-11T08:13:37.616Z,24.10
2018-10-11T08:16:07.670Z,21.37
2018-10-11T08:18:37.399Z,22.77
2018-10-11T08:21:06.939Z,22.97
2018-10-11T08:23:36.378Z,22.47
2018-10-11T08:26:06.402Z,20.87
2018-10-11T08:28:35.480Z,20.50
2018-10-11T08:31:05.009Z,20.37
2018-10-11T08:33:34.591Z,20.80
2018-10-11T08:36:03.950Z,21.13
2018-10-11T08:38:33.303Z,18.73
2018-10-11T08:41:02.851Z,19.80
2018-10-11T08:43:32.235Z,19.93
2018-10-11T08:46:02.004Z,18.97
2018-10-11T08:48:31.432Z,18.97
2018-10-11T08:51:00.749Z,24.30
2018-10-11T08:53:30.123Z,27.57
2018-10-11T08:55:59.905Z,29.63
2018-10-11T08:58:29.265Z,25.50
2018-10-11T09:00:58.391Z,23.97
2018-10-11T09:03:27.803Z,26.00
2018-10-11T09:05:57.461Z,24.77
2018-10-11T09:08:26.856Z,22.50
2018-10-11T09:10:56.488Z,24.25
2018-10-11T09:13:26.330Z,21.87
2018-10-11T09:15:56.190Z,22.33
2018-10-11T09:18:25.571Z,22.83
2018-10-11T09:20:55.166Z,22.90
2018-10-11T09:23:24.842Z,21.40
2018-10-11T09:25:54.148Z,20.40
2018-10-11T09:28:23.928Z,20.30
2018-10-11T09:30:53.281Z,21.83
2018-10-11T09:33:22.637Z,19.30
2018-10-11T09:35:51.796Z,21.03
2018-10-11T09:38:20.929Z,21.80
2018-10-11T09:40:50.293Z,21.73
2018-10-11T09:43:19.652Z,20.03
2018-10-11T09:45:48.768Z,20.00
2018-10-11T09:48:17.882Z,18.60
2018-10-11T09:50:47.738Z,21.40
2018-10-11T09:53:17.610Z,20.10
2018-10-11T09:55:46.989Z,20.53
2018-10-11T09:58:16.576Z,19.57
2018-10-11T10:00:51.517Z,20.60
2018-10-11T10:03:21.077Z,21.00
2018-10-11T10:05:50.429Z,20.90
2018-10-11T10:08:19.768Z,19.13
2018-10-11T10:10:49.365Z,19.10
2018-10-11T10:13:18.712Z,19.57
2018-10-11T10:15:48.085Z,19.70
2018-10-11T10:18:18.345Z,20.30
2018-10-11T10:20:47.735Z,18.83
2018-10-11T10:23:17.092Z,19.65
2018-10-11T10:25:46.465Z,20.30
2018-10-11T10:28:15.816Z,18.60
2018-10-11T10:30:51.913Z,19.17
2018-10-11T10:33:22.746Z,18.07
2018-10-11T10:35:52.189Z,18.30
2018-10-11T10:38:22.423Z,18.50
2018-10-11T10:40:52.181Z,16.47
2018-10-11T10:43:21.757Z,18.50
2018-10-11T10:45:51.329Z,17.63
2018-10-11T10:48:21.224Z,18.23
2018-10-11T10:50:50.581Z,19.07
2018-10-11T10:53:20.166Z,18.53
2018-10-11T10:55:50.127Z,19.07
2018-10-11T10:58:20.265Z,17.30
2018-10-11T11:00:50.098Z,16.73
2018-10-11T11:03:20.483Z,19.10
2018-10-11T11:05:50.423Z,17.53
2018-10-11T11:08:20.638Z,17.07
2018-10-11T11:10:50.304Z,15.80
2018-10-11T11:13:19.733Z,16.50
2018-10-11T11:15:49.620Z,18.87
2018-10-11T11:18:18.961Z,17.53
2018-10-11T11:20:48.329Z,17.53
2018-10-11T11:23:17.902Z,17.90
2018-10-11T11:25:47.498Z,17.33
2018-10-11T11:28:17.256Z,16.45
2018-10-11T11:30:46.386Z,17.00
2018-10-11T11:33:15.745Z,16.40
2018-10-11T11:35:45.127Z,16.10
2018-10-11T11:38:14.376Z,15.93
2018-10-11T11:40:43.492Z,17.60
2018-10-11T11:43:12.850Z,15.27
2018-10-11T11:45:42.417Z,16.63
2018-10-11T11:48:11.752Z,15.73
2018-10-11T11:50:41.227Z,15.67
2018-10-11T11:53:11.287Z,16.93
2018-10-11T11:55:40.826Z,15.90
2018-10-11T11:58:10.422Z,17.00
2018-10-11T12:00:40.002Z,16.57
2018-10-11T12:03:09.605Z,15.38
2018-10-11T12:05:39.181Z,14.93
2018-10-11T12:08:08.773Z,16.10
2018-10-11T12:10:38.393Z,16.15
2018-10-11T12:13:11.769Z,16.00
2018-10-11T12:15:42.329Z,16.30
2018-10-11T12:18:11.613Z,15.67
2018-10-11T12:20:42.160Z,15.30
2018-10-11T12:23:12.071Z,15.20
2018-10-11T12:25:41.481Z,15.13
2018-10-11T12:28:11.108Z,14.80
2018-10-11T12:30:40.666Z,14.70
2018-10-11T12:33:09.788Z,17.30
2018-10-11T12:35:39.158Z,15.00
2018-10-11T12:38:08.496Z,15.87
2018-10-11T12:40:37.864Z,14.73
2018-10-11T12:43:07.466Z,15.13
2018-10-11T12:45:37.702Z,14.87
2018-10-11T12:48:06.238Z,15.50
2018-10-11T12:50:35.604Z,14.70
2018-10-11T12:53:05.225Z,15.03
2018-10-11T12:55:34.589Z,14.47
2018-10-11T12:58:03.941Z,14.70
2018-10-11T13:00:33.336Z,14.07
2018-10-11T13:03:02.994Z,14.78
2018-10-11T13:05:32.266Z,14.57
2018-10-11T13:08:01.637Z,13.80
2018-10-11T13:10:30.993Z,15.57
2018-10-11T13:13:00.676Z,14.70
2018-10-11T13:15:30.130Z,15.13
2018-10-11T13:17:59.659Z,14.50
2018-10-11T13:20:29.249Z,14.37
2018-10-11T13:22:58.811Z,14.13
2018-10-11T13:25:28.565Z,14.90
2018-10-11T13:27:58.188Z,15.13
2018-10-11T13:30:27.758Z,16.30
2018-10-11T13:32:57.790Z,17.90
2018-10-11T13:35:27.177Z,17.03
2018-10-11T13:37:57.006Z,16.90
2018-10-11T13:40:26.353Z,16.40
2018-10-11T13:42:55.659Z,16.07
2018-10-11T13:45:25.188Z,16.40
2018-10-11T13:47:54.793Z,15.67
2018-10-11T13:50:24.732Z,16.15
2018-10-11T13:52:54.699Z,16.73
2018-10-11T13:55:23.980Z,16.73
2018-10-11T13:57:53.440Z,16.23
2018-10-11T14:00:22.572Z,16.87
2018-10-11T14:02:51.940Z,17.50
2018-10-11T14:05:21.526Z,17.80
2018-10-11T14:07:51.073Z,17.70
2018-10-11T14:10:20.447Z,16.93
2018-10-11T14:12:50.072Z,17.77
2018-10-11T14:15:19.436Z,16.40
2018-10-11T14:17:49.115Z,17.10
2018-10-11T14:20:19.717Z,17.47
2018-10-11T14:22:49.081Z,17.17
2018-10-11T14:25:18.414Z,16.60
2018-10-11T14:27:47.788Z,16.77
2018-10-11T14:30:17.381Z,15.97
2018-10-11T14:32:46.731Z,16.30
2018-10-11T14:35:15.837Z,17.07
2018-10-11T14:37:45.260Z,17.93
2018-10-11T14:40:15.131Z,16.90
2018-10-11T14:42:44.354Z,17.90
2018-10-11T14:45:13.481Z,17.33
2018-10-11T14:47:43.343Z,16.87
2018-10-11T14:50:12.517Z,17.50
2018-10-11T14:52:41.625Z,16.50
2018-10-11T14:55:10.770Z,16.67
2018-10-11T14:57:39.884Z,18.13
2018-10-11T15:00:09.294Z,18.83
2018-10-11T15:02:38.650Z,19.00
2018-10-11T15:05:08.042Z,17.70
2018-10-11T15:07:37.404Z,18.83
2018-10-11T15:10:06.563Z,18.70
2018-10-11T15:12:35.940Z,18.00
2018-10-11T15:15:05.475Z,17.67
2018-10-11T15:17:34.643Z,16.77
2018-10-11T15:20:03.818Z,18.02
2018-10-11T15:22:33.245Z,18.43
2018-10-11T15:25:02.809Z,19.53
2018-10-11T15:27:32.419Z,17.23
2018-10-11T15:30:01.758Z,18.47
2018-10-11T15:32:31.121Z,19.80
2018-10-11T15:35:00.788Z,17.10
2018-10-11T15:37:30.753Z,18.00
2018-10-11T15:40:00.101Z,18.97
2018-10-11T15:42:29.502Z,18.87
2018-10-11T15:44:59.150Z,18.57
2018-10-11T15:47:28.272Z,19.13
2018-10-11T15:49:57.857Z,17.90
2018-10-11T15:52:28.018Z,19.53
2018-10-11T15:54:57.851Z,19.27
2018-10-11T15:57:27.826Z,20.23
2018-10-11T15:59:57.775Z,20.43
2018-10-11T16:02:27.710Z,21.23
2018-10-11T16:04:57.974Z,21.20
2018-10-11T16:07:27.841Z,20.50
2018-10-11T16:09:57.976Z,20.53
2018-10-11T16:12:28.392Z,19.87
2018-10-11T16:14:57.676Z,20.87
2018-10-11T16:17:27.046Z,20.13
2018-10-11T16:19:57.431Z,20.33
2018-10-11T16:22:26.782Z,20.93
2018-10-11T16:24:56.205Z,19.63
2018-10-11T16:27:25.945Z,19.47
2018-10-11T16:29:55.517Z,19.73
2018-10-11T16:32:25.470Z,18.20
2018-10-11T16:34:54.823Z,18.27
2018-10-11T16:37:24.181Z,18.60
2018-10-11T16:39:53.517Z,19.53
2018-10-11T16:42:22.655Z,16.83
2018-10-11T16:44:52.020Z,19.60
2018-10-11T16:47:21.385Z,17.70
2018-10-11T16:49:50.787Z,17.33
2018-10-11T16:52:20.119Z,18.57
2018-10-11T16:54:49.508Z,18.17
2018-10-11T16:57:18.861Z,16.70
2018-10-11T16:59:47.964Z,21.30
2018-10-11T17:02:17.336Z,21.33
2018-10-11T17:04:46.925Z,19.73
2018-10-11T17:07:16.288Z,19.62
2018-10-11T17:09:45.713Z,19.60
2018-10-11T17:12:15.262Z,19.60
2018-10-11T17:14:44.740Z,19.43
2018-10-11T17:17:14.132Z,18.03
2018-10-11T17:19:43.717Z,17.92
2018-10-11T17:22:13.099Z,17.30
2018-10-11T17:24:42.228Z,17.67
2018-10-11T17:27:11.351Z,18.57
2018-10-11T17:29:40.789Z,18.20
2018-10-11T17:32:10.413Z,16.80
2018-10-11T17:34:39.787Z,17.50
2018-10-11T17:37:09.161Z,15.93
2018-10-11T17:39:38.754Z,18.23
2018-10-11T17:42:08.112Z,15.70
2018-10-11T17:44:37.492Z,15.27
2018-10-11T17:47:07.294Z,16.40
2018-10-11T17:49:36.854Z,15.08
2018-10-11T17:52:06.241Z,14.60
2018-10-11T17:54:35.837Z,17.50
2018-10-11T17:57:05.514Z,15.53
2018-10-11T17:59:34.663Z,16.12
2018-10-11T18:02:03.783Z,15.97
2018-10-11T18:04:33.156Z,16.03
2018-10-11T18:07:02.730Z,16.70
2018-10-11T18:09:32.302Z,14.70
2018-10-11T18:12:01.657Z,14.83
2018-10-11T18:14:31.037Z,15.13
2018-10-11T18:17:00.638Z,13.73
2018-10-11T18:19:30.071Z,17.17
2018-10-11T18:22:00.228Z,14.50
2018-10-11T18:24:29.368Z,15.13
2018-10-11T18:26:59.215Z,13.50
2018-10-11T18:29:29.081Z,15.90
2018-10-11T18:31:58.444Z,13.60
2018-10-11T18:34:28.340Z,15.03
2018-10-11T18:36:57.709Z,13.67
2018-10-11T18:39:27.078Z,14.97
2018-10-11T18:41:56.447Z,14.13
2018-10-11T18:44:25.804Z,14.20
2018-10-11T18:46:55.189Z,13.53
2018-10-11T18:49:24.772Z,14.87
2018-10-11T18:51:54.091Z,13.33
2018-10-11T18:54:23.473Z,13.80
2018-10-11T18:56:53.060Z,13.60
2018-10-11T18:59:22.407Z,13.70
2018-10-11T19:01:51.756Z,13.93
2018-10-11T19:04:21.340Z,13.83
2018-10-11T19:06:50.936Z,13.70
2018-10-11T19:09:20.537Z,12.90
2018-10-11T19:11:50.327Z,13.10
2018-10-11T19:14:19.688Z,14.30
2018-10-11T19:16:49.148Z,13.13
2018-10-11T19:19:18.286Z,12.70
2018-10-11T19:21:47.497Z,12.60
2018-10-11T19:24:16.769Z,12.00
2018-10-11T19:26:45.921Z,12.03
2018-10-11T19:29:15.282Z,13.27
2018-10-11T19:31:44.624Z,22.00
2018-10-11T19:34:14.009Z,12.98
2018-10-11T19:36:43.945Z,16.40
2018-10-11T19:39:14.265Z,14.70
2018-10-11T19:41:43.834Z,14.07
2018-10-11T19:44:13.781Z,13.40
2018-10-11T19:46:43.354Z,14.60
2018-10-11T19:49:12.877Z,13.90
2018-10-11T19:51:42.223Z,14.73
2018-10-11T19:54:12.101Z,14.85
2018-10-11T19:56:41.237Z,13.37
2018-10-11T19:59:10.620Z,12.90
2018-10-11T20:01:39.962Z,13.40
2018-10-11T20:04:09.344Z,13.27
2018-10-11T20:06:38.961Z,12.90
2018-10-11T20:09:08.823Z,12.67
2018-10-11T20:11:38.045Z,13.60
2018-10-11T20:14:07.416Z,14.00
2018-10-11T20:16:36.987Z,13.27
2018-10-11T20:19:06.354Z,13.22
2018-10-11T20:21:35.767Z,13.60
2018-10-11T20:24:05.350Z,13.17
2018-10-11T20:26:34.945Z,13.80
2018-10-11T20:29:04.529Z,13.40
2018-10-11T20:31:34.112Z,12.53
2018-10-11T20:34:03.446Z,12.30
2018-10-11T20:36:32.829Z,13.17
2018-10-11T20:39:02.406Z,13.50
2018-10-11T20:41:31.878Z,11.23
2018-10-11T20:44:01.250Z,13.17
2018-10-11T20:46:31.642Z,11.85
2018-10-11T20:49:01.718Z,12.90
2018-10-11T20:51:31.958Z,12.47
2018-10-11T20:54:01.677Z,13.03
2018-10-11T20:56:31.768Z,12.90
2018-10-11T20:59:01.986Z,11.97
2018-10-11T21:01:31.962Z,12.93
2018-10-11T21:04:01.893Z,12.20
2018-10-11T21:06:32.057Z,12.35
2018-10-11T21:09:02.196Z,12.80
2018-10-11T21:11:32.599Z,12.13
2018-10-11T21:14:02.175Z,12.70
2018-10-11T21:16:32.323Z,13.03
2018-10-11T21:19:02.263Z,12.25
2018-10-11T21:21:32.770Z,11.85
2018-10-11T21:24:02.376Z,10.63
2018-10-11T21:26:32.200Z,12.13
2018-10-11T21:29:01.577Z,12.10
2018-10-11T21:31:31.175Z,11.33
2018-10-11T21:34:00.518Z,13.00
2018-10-11T21:36:30.165Z,11.13
2018-10-11T21:38:59.508Z,11.17
2018-10-11T21:41:28.629Z,11.47
2018-10-11T21:43:57.769Z,11.20
2018-10-11T21:46:27.015Z,11.90
2018-10-11T21:48:56.417Z,11.27
2018-10-11T21:51:25.777Z,11.47
2018-10-11T21:53:55.158Z,11.93
2018-10-11T21:56:24.833Z,10.90
2018-10-11T21:58:54.253Z,11.63
2018-10-11T22:01:24.961Z,12.20
2018-10-11T22:03:54.688Z,10.77
2018-10-11T22:06:24.476Z,11.80
2018-10-11T22:08:53.829Z,12.00
2018-10-11T22:11:23.193Z,10.80
2018-10-11T22:13:52.589Z,11.90
2018-10-11T22:16:21.961Z,11.10
2018-10-11T22:18:51.414Z,11.83
2018-10-11T22:21:20.558Z,12.00
2018-10-11T22:23:49.925Z,11.90
2018-10-11T22:26:19.704Z,10.82
2018-10-11T22:28:49.008Z,11.87
2018-10-11T22:31:18.383Z,11.47
2018-10-11T22:33:47.976Z,10.27
2018-10-11T22:36:17.565Z,11.97
2018-10-11T22:38:47.125Z,10.75
2018-10-11T22:41:16.486Z,10.10
2018-10-11T22:43:45.916Z,10.20
2018-10-11T22:46:15.517Z,10.47
2018-10-11T22:48:45.135Z,11.00
2018-10-11T22:51:14.481Z,11.17
2018-10-11T22:53:43.871Z,11.20
2018-10-11T22:56:13.552Z,11.45
2018-10-11T22:58:42.746Z,11.33
2018-10-11T23:01:12.757Z,10.77
2018-10-11T23:03:42.331Z,10.50
2018-10-11T23:06:11.702Z,10.45
2018-10-11T23:08:41.060Z,10.77
2018-10-11T23:11:10.664Z,10.63
2018-10-11T23:13:40.644Z,9.73
2018-10-11T23:16:10.564Z,11.17
2018-10-11T23:18:40.788Z,10.30
2018-10-11T23:21:10.388Z,11.30
2018-10-11T23:23:39.680Z,10.63
2018-10-11T23:26:09.061Z,10.30
2018-10-11T23:28:39.218Z,10.40
2018-10-11T23:31:08.824Z,10.87
2018-10-11T23:33:38.197Z,10.27
2018-10-11T23:36:07.786Z,10.27
2018-10-11T23:38:37.434Z,10.20
2018-10-11T23:41:07.865Z,9.77
2018-10-11T23:43:37.169Z,10.57
2018-10-11T23:46:06.778Z,9.50
2018-10-11T23:48:35.941Z,10.43
2018-10-11T23:51:05.334Z,9.93
2018-10-11T23:53:35.179Z,10.07
2018-10-11T23:56:04.803Z,10.03
2018-10-11T23:58:34.763Z,10.00
